Terminal Aerodrome Forecast
Issued by NWS Wilmington, OH

Current Version | Previous Version | Graphics & Text | Print | Product List | Glossary On
Versions: 1 2 3 4 5 6 7 8 9 10 11 12 13 14 15 16 17 18 19 20 21
000
FTUS41 KILN 180907 AAA
TAFDAY
TAF AMD
KDAY 180907Z 1809/1906 20014G25KT 4SM -SHRA BR VCTS OVC035CB
      WS020/21050KT
     FM181400 20017G27KT 6SM -SHRA BR VCTS OVC014CB
     FM181800 20018G32KT P6SM VCSH OVC008
     FM182100 20017G28KT 4SM SHRA BR OVC008
     FM190100 27019G27KT 4SM -SHRA BR OVC012
     FM190300 30023G34KT P6SM OVC012=

USA.gov is the U.S. government's official web portal to all federal, state and local government web resources and services.